createdAt,value
2023-02-11T00:02:09.177Z,44.70
2023-02-11T00:04:35.840Z,41.93
2023-02-11T00:07:02.840Z,40.70
2023-02-11T00:09:31.767Z,41.77
2023-02-11T00:11:58.393Z,36.27
2023-02-11T00:14:25.089Z,43.87
2023-02-11T00:16:51.674Z,39.20
2023-02-11T00:19:18.156Z,36.70
2023-02-11T00:21:44.589Z,35.23
2023-02-11T00:24:11.070Z,43.70
2023-02-11T00:26:41.232Z,48.13
2023-02-11T00:29:10.827Z,39.03
2023-02-11T00:31:40.773Z,38.37
2023-02-11T00:34:10.386Z,34.60
2023-02-11T00:36:38.974Z,39.90
2023-02-11T00:39:05.476Z,47.80
2023-02-11T00:41:31.951Z,45.33
2023-02-11T00:44:00.285Z,39.70
2023-02-11T00:46:26.838Z,42.03
2023-02-11T00:48:57.575Z,36.97
2023-02-11T00:51:25.659Z,43.03
2023-02-11T00:53:52.319Z,45.37
2023-02-11T00:56:19.198Z,40.57
2023-02-11T00:58:45.764Z,44.23
2023-02-11T01:01:13.233Z,37.40
2023-02-11T01:03:41.086Z,42.13
2023-02-11T01:06:11.174Z,41.03
2023-02-11T01:08:40.775Z,44.53
2023-02-11T01:11:13.149Z,44.00
2023-02-11T01:13:40.813Z,44.50
2023-02-11T01:16:08.592Z,46.30
2023-02-11T01:18:35.978Z,45.20
2023-02-11T01:21:02.568Z,35.93
2023-02-11T01:23:29.162Z,44.73
2023-02-11T01:25:56.461Z,44.17
2023-02-11T01:28:25.381Z,42.53
2023-02-11T01:30:52.652Z,44.73
2023-02-11T01:33:19.595Z,40.00
2023-02-11T01:35:46.254Z,43.47
2023-02-11T01:38:20.726Z,40.83
2023-02-11T01:40:49.168Z,44.17
2023-02-11T01:43:15.859Z,39.50
2023-02-11T01:45:46.201Z,42.63
2023-02-11T01:48:20.753Z,45.13
2023-02-11T01:50:51.834Z,42.50
2023-02-11T01:53:37.792Z,41.23
2023-02-11T01:56:24.248Z,44.40
2023-02-11T01:58:52.325Z,40.33
2023-02-11T02:01:24.291Z,44.73
2023-02-11T02:03:56.639Z,42.63
2023-02-11T02:06:31.557Z,38.33
2023-02-11T02:09:09.327Z,39.23
2023-02-11T02:11:36.628Z,45.30
2023-02-11T02:14:03.733Z,38.73
2023-02-11T02:16:34.766Z,37.90
2023-02-11T02:19:23.184Z,43.43
2023-02-11T02:21:58.772Z,39.57
2023-02-11T02:24:34.068Z,40.20
2023-02-11T02:27:19.123Z,36.80
2023-02-11T02:30:03.900Z,41.70
2023-02-11T02:32:51.853Z,40.13
2023-02-11T02:35:35.091Z,46.83
2023-02-11T02:38:19.257Z,46.93
2023-02-11T02:40:54.937Z,44.30
2023-02-11T02:43:23.696Z,41.47
2023-02-11T02:45:50.439Z,46.73
2023-02-11T02:48:34.771Z,43.63
2023-02-11T02:51:26.355Z,37.00
2023-02-11T02:54:17.821Z,39.63
2023-02-11T02:57:21.576Z,42.13
2023-02-11T03:00:09.943Z,38.70
2023-02-11T03:02:48.548Z,37.07
2023-02-11T03:05:52.443Z,40.17
2023-02-11T03:08:44.219Z,34.00
2023-02-11T03:11:12.495Z,40.47
2023-02-11T03:13:40.768Z,36.83
2023-02-11T03:16:13.555Z,43.30
2023-02-11T03:18:44.367Z,41.83
2023-02-11T03:21:12.107Z,36.53
2023-02-11T03:23:50.834Z,38.53
2023-02-11T03:26:49.812Z,36.27
2023-02-11T03:29:41.200Z,41.70
2023-02-11T03:32:22.243Z,37.13
2023-02-11T03:34:54.845Z,37.23
2023-02-11T03:37:31.922Z,42.70
2023-02-11T03:40:06.650Z,35.47
2023-02-11T03:42:39.080Z,34.47
2023-02-11T03:45:10.811Z,37.40
2023-02-11T03:47:40.020Z,35.67
2023-02-11T03:50:09.023Z,47.13
2023-02-11T03:52:37.906Z,38.33
2023-02-11T03:55:11.192Z,37.60
2023-02-11T03:57:38.539Z,35.70
2023-02-11T04:00:06.013Z,34.50
2023-02-11T04:02:35.832Z,37.60
2023-02-11T04:05:03.319Z,33.57
2023-02-11T04:07:29.785Z,37.90
2023-02-11T04:09:56.296Z,35.13
2023-02-11T04:12:22.789Z,41.20
2023-02-11T04:14:51.369Z,37.73
2023-02-11T04:17:18.345Z,37.40
2023-02-11T04:19:44.809Z,41.70
2023-02-11T04:22:12.095Z,39.93
2023-02-11T04:24:38.658Z,43.43
2023-02-11T04:27:05.224Z,40.37
2023-02-11T04:29:32.112Z,38.73
2023-02-11T04:31:58.670Z,39.80
2023-02-11T04:34:25.164Z,43.97
2023-02-11T04:36:54.851Z,38.63
2023-02-11T04:39:24.140Z,55.30
2023-02-11T04:41:52.953Z,38.20
2023-02-11T04:44:19.500Z,37.97
2023-02-11T04:46:46.004Z,36.90
2023-02-11T04:49:17.000Z,38.70
2023-02-11T04:51:46.506Z,41.67
2023-02-11T04:54:14.676Z,45.83
2023-02-11T04:56:41.156Z,48.50
2023-02-11T04:59:07.789Z,42.40
2023-02-11T05:01:34.578Z,50.30
2023-02-11T05:04:01.239Z,55.13
2023-02-11T05:06:27.758Z,43.63
2023-02-11T05:08:57.372Z,42.77
2023-02-11T05:11:25.666Z,40.90
2023-02-11T05:13:54.434Z,41.13
2023-02-11T05:16:21.049Z,37.03
2023-02-11T05:18:47.662Z,40.53
2023-02-11T05:21:18.287Z,41.53
2023-02-11T05:23:45.655Z,38.37
2023-02-11T05:26:12.622Z,34.07
2023-02-11T05:28:39.663Z,42.37
2023-02-11T05:31:07.124Z,48.00
2023-02-11T05:33:33.942Z,42.20
2023-02-11T05:36:07.446Z,44.20
2023-02-11T05:38:34.499Z,41.47
2023-02-11T05:41:01.911Z,40.77
2023-02-11T05:43:28.385Z,40.93
2023-02-11T05:45:58.280Z,36.60
2023-02-11T05:48:29.222Z,43.50
2023-02-11T05:50:58.826Z,45.13
2023-02-11T05:53:29.110Z,39.63
2023-02-11T05:55:58.535Z,43.20
2023-02-11T05:58:28.576Z,39.00
2023-02-11T06:00:58.034Z,43.47
2023-02-11T06:03:26.108Z,45.83
2023-02-11T06:06:01.352Z,43.77
2023-02-11T06:08:27.880Z,37.57
2023-02-11T06:10:56.347Z,33.80
2023-02-11T06:13:22.789Z,42.67
2023-02-11T06:15:59.321Z,42.93
2023-02-11T06:18:29.566Z,39.53
2023-02-11T06:20:56.553Z,38.40
2023-02-11T06:23:23.192Z,44.00
2023-02-11T06:25:50.288Z,46.07
2023-02-11T06:28:17.078Z,40.13
2023-02-11T06:30:43.614Z,36.33
2023-02-11T06:33:10.168Z,42.33
2023-02-11T06:35:39.020Z,44.70
2023-02-11T06:38:05.496Z,44.67
2023-02-11T06:40:31.948Z,45.77
2023-02-11T06:42:58.393Z,50.20
2023-02-11T06:45:27.895Z,41.67
2023-02-11T06:47:56.774Z,53.17
2023-02-11T06:50:23.292Z,45.70
2023-02-11T06:52:49.806Z,54.07
2023-02-11T06:55:16.266Z,46.13
2023-02-11T06:57:42.775Z,37.13
2023-02-11T07:00:09.923Z,40.57
2023-02-11T07:02:36.705Z,36.67
2023-02-11T07:05:04.963Z,42.13
2023-02-11T07:07:34.085Z,43.80
2023-02-11T07:10:00.967Z,38.87
2023-02-11T07:12:27.462Z,37.80
2023-02-11T07:14:55.810Z,38.47
2023-02-11T07:17:22.390Z,29.73
2023-02-11T07:19:48.959Z,38.47
2023-02-11T07:22:15.673Z,39.63
2023-02-11T07:24:42.225Z,35.87
2023-02-11T07:27:08.702Z,39.97
2023-02-11T07:29:35.173Z,37.13
2023-02-11T07:32:01.684Z,35.63
2023-02-11T07:34:28.185Z,39.63
2023-02-11T07:36:54.816Z,34.83
2023-02-11T07:39:22.513Z,37.47
2023-02-11T07:41:49.354Z,35.07
2023-02-11T07:44:15.858Z,36.83
2023-02-11T07:46:45.685Z,42.97
2023-02-11T07:49:12.778Z,36.27
2023-02-11T07:51:39.333Z,30.93
2023-02-11T07:54:05.936Z,33.60
2023-02-11T07:56:33.081Z,30.43
2023-02-11T07:59:03.262Z,30.67
2023-02-11T08:01:30.724Z,33.40
2023-02-11T08:03:59.068Z,33.40
2023-02-11T08:06:31.561Z,33.03
2023-02-11T08:08:58.763Z,30.47
2023-02-11T08:11:28.538Z,34.57
2023-02-11T08:13:56.998Z,32.70
2023-02-11T08:16:25.690Z,34.23
2023-02-11T08:18:55.851Z,37.03
2023-02-11T08:21:22.382Z,38.10
2023-02-11T08:23:49.746Z,29.53
2023-02-11T08:26:22.260Z,33.63
2023-02-11T08:28:50.353Z,31.13
2023-02-11T08:31:34.349Z,30.67
2023-02-11T08:34:02.393Z,29.33
2023-02-11T08:36:32.968Z,33.47
2023-02-11T08:39:17.495Z,38.33
2023-02-11T08:41:46.628Z,36.83
2023-02-11T08:44:14.045Z,40.83
2023-02-11T08:46:40.587Z,44.30
2023-02-11T08:49:07.195Z,37.07
2023-02-11T08:51:33.736Z,33.03
2023-02-11T08:54:00.577Z,36.70
2023-02-11T08:56:27.985Z,35.53
2023-02-11T08:58:56.473Z,37.77
2023-02-11T09:01:28.932Z,30.33
2023-02-11T09:03:59.251Z,32.57
2023-02-11T09:06:29.547Z,34.57
2023-02-11T09:08:58.871Z,31.13
2023-02-11T09:11:31.234Z,31.77
2023-02-11T09:13:59.466Z,24.97
2023-02-11T09:16:32.736Z,29.90
2023-02-11T09:19:00.851Z,26.90
2023-02-11T09:21:28.569Z,28.70
2023-02-11T09:23:59.574Z,29.87
2023-02-11T09:26:31.712Z,30.83
2023-02-11T09:28:59.036Z,28.07
2023-02-11T09:31:29.210Z,31.60
2023-02-11T09:34:00.966Z,29.45
2023-02-11T09:36:29.896Z,31.25
2023-02-11T09:39:01.293Z,31.02
2023-02-11T09:41:56.912Z,25.70
2023-02-11T09:44:28.394Z,27.73
2023-02-11T09:47:01.556Z,29.48
2023-02-11T09:49:44.352Z,35.50
2023-02-11T09:52:26.442Z,23.70
2023-02-11T09:55:00.275Z,25.73
2023-02-11T09:57:31.789Z,32.47
2023-02-11T09:59:58.423Z,32.05
2023-02-11T10:02:44.991Z,29.98
2023-02-11T10:05:28.444Z,32.67
2023-02-11T10:08:09.823Z,29.90
2023-02-11T10:11:01.403Z,30.77
2023-02-11T10:13:57.657Z,36.00
2023-02-11T10:16:42.849Z,30.58
2023-02-11T10:19:38.733Z,33.33
2023-02-11T10:22:31.467Z,30.67
2023-02-11T10:25:00.307Z,31.88
2023-02-11T10:27:35.394Z,36.28
2023-02-11T10:30:11.037Z,38.75
2023-02-11T10:32:52.657Z,40.22
2023-02-11T10:35:22.332Z,35.83
2023-02-11T10:37:49.708Z,38.72
2023-02-11T10:40:19.506Z,31.15
2023-02-11T10:42:49.171Z,32.65
2023-02-11T10:45:22.474Z,32.05
2023-02-11T10:47:48.974Z,40.78
2023-02-11T10:50:26.078Z,41.38
2023-02-11T10:52:52.653Z,30.92
2023-02-11T10:55:25.827Z,33.10
2023-02-11T10:58:03.040Z,31.60
2023-02-11T11:00:39.124Z,34.45
2023-02-11T11:03:18.552Z,36.25
2023-02-11T11:06:02.124Z,38.08
2023-02-11T11:08:41.734Z,31.30
2023-02-11T11:11:11.736Z,35.40
2023-02-11T11:13:40.643Z,37.63
2023-02-11T11:16:13.141Z,35.13
2023-02-11T11:18:51.504Z,38.17
2023-02-11T11:21:19.408Z,36.47
2023-02-11T11:23:58.332Z,30.27
2023-02-11T11:26:40.485Z,29.83
2023-02-11T11:29:16.078Z,36.10
2023-02-11T11:31:57.768Z,31.38
2023-02-11T11:34:31.274Z,33.47
2023-02-11T11:37:00.598Z,33.58
2023-02-11T11:39:31.367Z,32.50
2023-02-11T11:42:00.338Z,35.25
2023-02-11T11:44:36.963Z,32.88
2023-02-11T11:47:12.521Z,33.95
2023-02-11T11:49:56.129Z,33.08
2023-02-11T11:52:22.570Z,29.25
2023-02-11T11:55:00.586Z,38.83
2023-02-11T11:57:29.794Z,35.63
2023-02-11T11:59:59.452Z,34.97
2023-02-11T12:03:02.777Z,37.40
2023-02-11T12:05:52.641Z,31.77
2023-02-11T12:08:34.956Z,29.52
2023-02-11T12:11:33.476Z,31.70
2023-02-11T12:13:59.876Z,29.63
2023-02-11T12:16:38.149Z,33.08
2023-02-11T12:19:27.563Z,35.63
2023-02-11T12:22:09.542Z,35.22
2023-02-11T12:24:56.641Z,31.58
2023-02-11T12:27:50.663Z,37.60
2023-02-11T12:30:29.358Z,34.78
2023-02-11T12:33:40.875Z,30.98
2023-02-11T12:36:28.537Z,33.90
2023-02-11T12:39:22.351Z,32.00
2023-02-11T12:42:30.906Z,31.45
2023-02-11T12:45:28.554Z,28.83
2023-02-11T12:48:34.143Z,32.15
2023-02-11T12:51:28.877Z,30.25
2023-02-11T12:54:10.800Z,29.48
2023-02-11T12:56:50.914Z,27.70
2023-02-11T12:59:38.299Z,32.38
2023-02-11T13:02:17.582Z,31.08
2023-02-11T13:04:51.100Z,30.48
2023-02-11T13:07:31.107Z,31.30
2023-02-11T13:10:07.719Z,32.22
2023-02-11T13:12:58.975Z,35.15
2023-02-11T13:15:31.425Z,31.98
2023-02-11T13:18:44.072Z,28.55
2023-02-11T13:21:17.049Z,33.53
2023-02-11T13:23:51.594Z,30.67
2023-02-11T13:26:33.836Z,31.48
2023-02-11T13:29:38.173Z,32.53
2023-02-11T13:32:14.904Z,34.95
2023-02-11T13:34:41.589Z,32.53
2023-02-11T13:37:30.713Z,33.78
2023-02-11T13:40:06.214Z,30.48
2023-02-11T13:42:34.916Z,31.05
2023-02-11T13:45:01.601Z,32.60
2023-02-11T13:47:43.909Z,29.80
2023-02-11T13:50:23.959Z,32.95
2023-02-11T13:53:02.221Z,32.22
2023-02-11T13:55:30.435Z,35.35
2023-02-11T13:58:06.077Z,32.58
2023-02-11T14:00:35.723Z,26.63
2023-02-11T14:03:30.204Z,20.60
2023-02-11T14:06:40.131Z,30.05
2023-02-11T14:09:36.692Z,30.23
2023-02-11T14:12:24.347Z,32.03
2023-02-11T14:15:07.892Z,32.15
2023-02-11T14:17:34.932Z,31.55
2023-02-11T14:20:04.666Z,28.38
2023-02-11T14:22:44.135Z,29.70
2023-02-11T14:25:22.892Z,29.65
2023-02-11T14:28:21.640Z,30.30
2023-02-11T14:31:11.323Z,34.05
2023-02-11T14:33:53.300Z,36.35
2023-02-11T14:36:43.741Z,28.33
2023-02-11T14:39:18.981Z,31.42
2023-02-11T14:41:48.839Z,28.02
2023-02-11T14:44:20.054Z,33.15
2023-02-11T14:46:48.960Z,37.78
2023-02-11T14:49:31.083Z,28.98
2023-02-11T14:52:07.461Z,34.80
2023-02-11T14:54:35.236Z,35.28
2023-02-11T14:57:11.995Z,27.38
2023-02-11T14:59:38.620Z,32.08
2023-02-11T15:02:21.428Z,27.02
2023-02-11T15:04:47.946Z,35.22
2023-02-11T15:07:15.560Z,24.42
2023-02-11T15:09:45.957Z,28.25
2023-02-11T15:12:19.932Z,21.77
2023-02-11T15:14:53.193Z,24.58
2023-02-11T15:17:23.662Z,24.63
2023-02-11T15:19:55.329Z,23.63
2023-02-11T15:22:36.853Z,22.10
2023-02-11T15:25:17.280Z,25.30
2023-02-11T15:28:01.053Z,28.60
2023-02-11T15:30:35.295Z,26.45
2023-02-11T15:33:05.430Z,23.25
2023-02-11T15:35:42.764Z,26.90
2023-02-11T15:38:12.746Z,28.02
2023-02-11T15:40:39.236Z,23.90
2023-02-11T15:43:08.094Z,25.63
2023-02-11T15:45:35.749Z,25.73
2023-02-11T15:48:20.211Z,27.48
2023-02-11T15:51:03.226Z,27.02
2023-02-11T15:53:43.107Z,26.73
2023-02-11T15:56:19.617Z,29.38
2023-02-11T15:58:49.432Z,29.98
2023-02-11T16:01:16.116Z,28.58
2023-02-11T16:03:43.873Z,28.88
2023-02-11T16:06:16.312Z,32.47
2023-02-11T16:08:43.333Z,31.67
2023-02-11T16:11:26.413Z,32.45
2023-02-11T16:13:53.516Z,37.15
2023-02-11T16:16:24.529Z,36.63
2023-02-11T16:19:04.357Z,31.05
2023-02-11T16:21:39.053Z,32.65
2023-02-11T16:24:08.054Z,33.50
2023-02-11T16:26:43.141Z,34.95
2023-02-11T16:29:25.200Z,40.90
2023-02-11T16:31:54.044Z,29.38
2023-02-11T16:34:23.127Z,37.70
2023-02-11T16:36:51.019Z,33.15
2023-02-11T16:39:21.597Z,36.00
2023-02-11T16:41:50.525Z,37.22
2023-02-11T16:44:17.867Z,39.53
2023-02-11T16:46:44.775Z,35.88
2023-02-11T16:49:30.028Z,36.08
2023-02-11T16:52:03.323Z,31.85
2023-02-11T16:54:30.290Z,37.67
2023-02-11T16:56:57.031Z,36.95
2023-02-11T16:59:24.058Z,34.53
2023-02-11T17:01:54.613Z,33.45
2023-02-11T17:04:24.988Z,36.88
2023-02-11T17:06:53.979Z,40.08
2023-02-11T17:09:27.758Z,36.65
2023-02-11T17:11:55.474Z,34.88
2023-02-11T17:14:21.919Z,42.80
2023-02-11T17:16:48.793Z,40.67
2023-02-11T17:19:19.648Z,37.65
2023-02-11T17:21:47.783Z,44.70
2023-02-11T17:24:15.115Z,34.90
2023-02-11T17:26:43.907Z,35.83
2023-02-11T17:29:13.637Z,33.90
2023-02-11T17:31:41.049Z,38.05
2023-02-11T17:34:08.055Z,44.08
2023-02-11T17:36:34.929Z,38.42
2023-02-11T17:39:01.401Z,40.03
2023-02-11T17:41:28.209Z,48.28
2023-02-11T17:43:58.064Z,44.58
2023-02-11T17:46:24.742Z,44.25
2023-02-11T17:48:53.144Z,45.28
2023-02-11T17:51:27.240Z,39.33
2023-02-11T17:53:54.107Z,38.55
2023-02-11T17:56:23.341Z,48.40
2023-02-11T17:58:49.897Z,40.35
2023-02-11T18:01:16.706Z,41.20
2023-02-11T18:03:43.257Z,37.85
2023-02-11T18:06:09.815Z,43.28
2023-02-11T18:08:36.478Z,39.47
2023-02-11T18:11:12.878Z,41.65
2023-02-11T18:13:42.359Z,42.47
2023-02-11T18:16:08.958Z,38.10
2023-02-11T18:18:35.730Z,37.20
2023-02-11T18:21:08.553Z,38.22
2023-02-11T18:23:35.426Z,36.03
2023-02-11T18:26:07.991Z,40.33
2023-02-11T18:28:34.620Z,36.45
2023-02-11T18:31:03.224Z,38.15
2023-02-11T18:33:33.120Z,35.05
2023-02-11T18:35:59.626Z,33.45
2023-02-11T18:38:26.176Z,39.10
2023-02-11T18:40:52.759Z,35.33
2023-02-11T18:43:20.085Z,32.70
2023-02-11T18:45:47.982Z,35.72
2023-02-11T18:48:20.913Z,41.25
2023-02-11T18:50:50.090Z,35.88
2023-02-11T18:53:43.488Z,40.67
2023-02-11T18:56:20.639Z,32.03
2023-02-11T18:58:47.796Z,33.67
2023-02-11T19:01:22.766Z,32.30
2023-02-11T19:03:49.827Z,33.13
2023-02-11T19:06:19.694Z,34.80
2023-02-11T19:08:49.187Z,31.15
2023-02-11T19:11:17.885Z,31.45
2023-02-11T19:13:44.754Z,34.78
2023-02-11T19:16:13.941Z,35.40
2023-02-11T19:18:42.798Z,31.15
2023-02-11T19:21:11.144Z,35.78
2023-02-11T19:23:38.163Z,37.25
2023-02-11T19:26:07.474Z,34.70
2023-02-11T19:28:37.474Z,35.45
2023-02-11T19:31:08.873Z,37.78
2023-02-11T19:33:35.651Z,40.63
2023-02-11T19:36:07.860Z,31.33
2023-02-11T19:38:38.199Z,36.40
2023-02-11T19:41:07.746Z,38.80
2023-02-11T19:43:39.799Z,35.45
2023-02-11T19:49:36.864Z,34.80
2023-02-11T19:52:05.639Z,37.13
2023-02-11T19:54:32.205Z,30.40
2023-02-11T19:56:58.941Z,37.47
2023-02-11T19:59:25.719Z,41.47
2023-02-11T20:01:53.755Z,46.80
2023-02-11T20:04:20.358Z,34.47
2023-02-11T20:06:49.714Z,35.77
2023-02-11T20:09:16.245Z,32.23
2023-02-11T20:11:43.023Z,32.87
2023-02-11T20:14:12.614Z,29.47
2023-02-11T20:16:48.065Z,32.33
2023-02-11T20:19:20.280Z,33.95
2023-02-11T20:21:48.699Z,35.42
2023-02-11T20:24:16.848Z,37.83
2023-02-11T20:26:45.218Z,31.30
2023-02-11T20:29:12.136Z,30.13
2023-02-11T20:31:38.878Z,28.73
2023-02-11T20:34:08.469Z,37.25
2023-02-11T20:36:39.153Z,31.30
2023-02-11T20:39:06.478Z,36.50
2023-02-11T20:41:41.318Z,29.90
2023-02-11T20:44:11.923Z,34.53
2023-02-11T20:46:42.926Z,37.17
2023-02-11T20:49:14.121Z,39.30
2023-02-11T20:51:40.712Z,35.07
2023-02-11T20:54:15.856Z,37.50
2023-02-11T20:56:42.601Z,37.70
2023-02-11T20:59:09.706Z,34.23
2023-02-11T21:01:44.664Z,34.53
2023-02-11T21:04:14.498Z,32.90
2023-02-11T21:06:44.747Z,37.93
2023-02-11T21:09:14.874Z,41.73
2023-02-11T21:11:41.931Z,35.47
2023-02-11T21:14:10.270Z,38.97
2023-02-11T21:16:40.298Z,39.93
2023-02-11T21:19:07.098Z,32.47
2023-02-11T21:21:36.284Z,38.83
2023-02-11T21:24:03.254Z,36.60
2023-02-11T21:26:29.751Z,34.50
2023-02-11T21:28:56.333Z,37.53
2023-02-11T21:31:26.747Z,31.40
2023-02-11T21:33:56.879Z,40.53
2023-02-11T21:36:24.335Z,41.27
2023-02-11T21:38:51.202Z,38.30
2023-02-11T21:41:21.162Z,39.97
2023-02-11T21:43:48.091Z,39.87
2023-02-11T21:46:16.041Z,41.97
2023-02-11T21:48:43.380Z,40.07
2023-02-11T21:51:14.008Z,47.33
2023-02-11T21:53:40.491Z,42.00
2023-02-11T21:56:14.189Z,34.87
2023-02-11T21:58:40.778Z,41.07
2023-02-11T22:01:16.260Z,42.90
2023-02-11T22:03:43.298Z,38.33
2023-02-11T22:06:12.768Z,45.13
2023-02-11T22:08:40.050Z,35.20
2023-02-11T22:11:10.703Z,41.60
2023-02-11T22:13:42.283Z,36.87
2023-02-11T22:16:14.560Z,43.73
2023-02-11T22:18:41.945Z,38.53
2023-02-11T22:21:16.984Z,42.27
2023-02-11T22:23:44.481Z,40.87
2023-02-11T22:26:16.185Z,34.07
2023-02-11T22:28:43.447Z,46.67
2023-02-11T22:31:15.701Z,34.80
2023-02-11T22:33:42.749Z,33.07
2023-02-11T22:36:18.727Z,39.17
2023-02-11T22:38:45.503Z,38.43
2023-02-11T22:41:12.615Z,38.37
2023-02-11T22:43:43.317Z,45.30
2023-02-11T22:46:12.493Z,35.87
2023-02-11T22:48:43.116Z,40.27
2023-02-11T22:51:14.530Z,48.37
2023-02-11T22:53:42.254Z,38.90
2023-02-11T22:56:15.525Z,35.93
2023-02-11T22:58:42.861Z,38.60
2023-02-11T23:01:13.256Z,38.03
2023-02-11T23:03:44.605Z,37.50
2023-02-11T23:06:12.124Z,36.47
2023-02-11T23:08:46.117Z,38.63
2023-02-11T23:11:21.835Z,37.13
2023-02-11T23:13:50.472Z,48.23
2023-02-11T23:16:22.847Z,37.40
2023-02-11T23:18:50.723Z,38.73
2023-02-11T23:21:23.218Z,32.27
2023-02-11T23:23:54.697Z,39.27
2023-02-11T23:26:21.594Z,39.07
2023-02-11T23:28:48.594Z,41.23
2023-02-11T23:31:24.485Z,42.80
2023-02-11T23:33:51.719Z,39.87
2023-02-11T23:36:19.909Z,46.63
2023-02-11T23:38:47.164Z,43.20
2023-02-11T23:41:14.542Z,48.17
2023-02-11T23:43:44.308Z,45.30
2023-02-11T23:46:14.747Z,48.03
2023-02-11T23:48:44.232Z,48.10
2023-02-11T23:51:14.125Z,44.33
2023-02-11T23:53:42.761Z,44.33
2023-02-11T23:56:13.253Z,47.33
2023-02-11T23:58:39.738Z,41.83
